createdAt,value
2022-09-30T00:01:58.058Z,1002.7
2022-09-30T00:08:17.986Z,1002.72
2022-09-30T00:14:41.005Z,1002.74
2022-09-30T00:21:00.967Z,1002.77
2022-09-30T00:27:24.006Z,1002.81
2022-09-30T00:33:44.004Z,1002.92
2022-09-30T00:40:06.988Z,1002.94
2022-09-30T00:46:27.024Z,1002.94
2022-09-30T00:52:50.159Z,1002.96
2022-09-30T00:59:10.002Z,1003.02
2022-09-30T01:05:33.035Z,1003.06
2022-09-30T01:11:53.036Z,1003.09
2022-09-30T01:18:15.991Z,1003.11
2022-09-30T01:24:36.007Z,1003.11
2022-09-30T01:30:59.048Z,1003.15
2022-09-30T01:37:18.985Z,1003.21
2022-09-30T01:43:41.975Z,1003.27
2022-09-30T01:50:02.012Z,1003.37
2022-09-30T01:56:24.977Z,1003.43
2022-09-30T02:02:45.012Z,1003.43
2022-09-30T02:09:08.047Z,1003.39
2022-09-30T02:15:27.963Z,1003.39
2022-09-30T02:21:51.017Z,1003.41
2022-09-30T02:28:11.007Z,1003.43
2022-09-30T02:34:34.074Z,1003.41
2022-09-30T02:40:53.970Z,1003.35
2022-09-30T02:47:17.012Z,1003.33
2022-09-30T02:53:36.995Z,1003.31
2022-09-30T03:00:02.990Z,1003.27
2022-09-30T03:06:20.009Z,1003.31
2022-09-30T03:12:43.024Z,1003.41
2022-09-30T03:34:33.984Z,1003.6
2022-09-30T03:40:56.973Z,1003.66
2022-09-30T03:47:16.987Z,1003.7
2022-09-30T03:53:40.027Z,1003.74
2022-09-30T04:00:00.053Z,1003.78
2022-09-30T04:06:23.004Z,1003.9
2022-09-30T04:12:43.016Z,1003.98
2022-09-30T04:19:06.001Z,1004.11
2022-09-30T04:25:25.994Z,1004.17
2022-09-30T04:31:49.092Z,1004.25
2022-09-30T04:38:09.021Z,1004.35
2022-09-30T04:44:32.001Z,1004.41
2022-09-30T04:50:52.013Z,1004.45
2022-09-30T04:57:14.984Z,1004.47
2022-09-30T05:03:35.018Z,1004.47
2022-09-30T05:09:58.018Z,1004.5
2022-09-30T05:16:18.098Z,1004.58
2022-09-30T05:22:41.011Z,1004.62
2022-09-30T05:29:01.001Z,1004.66
2022-09-30T05:35:24.038Z,1004.74
2022-09-30T05:41:43.969Z,1004.76
2022-09-30T05:48:06.991Z,1004.82
2022-09-30T05:54:27.009Z,1004.86
2022-09-30T06:00:49.981Z,1004.94
2022-09-30T06:07:10.678Z,1005.01
2022-09-30T06:13:32.974Z,1005.11
2022-09-30T06:19:52.969Z,1005.23
2022-09-30T06:26:16.038Z,1005.25
2022-09-30T06:32:36.002Z,1005.38
2022-09-30T06:38:59.045Z,1005.61
2022-09-30T06:45:28.883Z,1005.67
2022-09-30T06:51:42.025Z,1005.69
2022-09-30T06:58:02.009Z,1005.69
2022-09-30T07:04:24.992Z,1005.71
2022-09-30T07:10:45.054Z,1005.76
2022-09-30T07:17:07.986Z,1005.78
2022-09-30T07:23:28.019Z,1005.86
2022-09-30T07:30:08.004Z,1005.88
2022-09-30T07:36:10.997Z,1005.94
2022-09-30T07:42:34.021Z,1005.96
2022-09-30T07:48:53.981Z,1005.98
2022-09-30T07:55:17.009Z,1006.06
2022-09-30T08:01:37.113Z,1006.12
2022-09-30T08:07:59.972Z,1006.19
2022-09-30T08:14:19.977Z,1006.21
2022-09-30T08:37:44.271Z,1006.29
2022-09-30T08:44:06.967Z,1006.27
2022-09-30T08:50:26.981Z,1006.27
2022-09-30T08:56:49.996Z,1006.25
2022-09-30T09:03:10.010Z,1006.23
2022-09-30T09:09:32.997Z,1006.25
2022-09-30T09:15:52.997Z,1006.23
2022-09-30T09:22:15.996Z,1006.18
2022-09-30T09:28:35.971Z,1006.16
2022-09-30T09:34:59.054Z,1006.14
2022-09-30T09:41:19.009Z,1006.12
2022-09-30T09:47:42.005Z,1006.08
2022-09-30T09:54:02.007Z,1006.02
2022-09-30T10:00:24.992Z,1006
2022-09-30T10:06:45.027Z,1006
2022-09-30T10:13:08.029Z,1006.04
2022-09-30T10:19:28.011Z,1005.96
2022-09-30T10:25:50.997Z,1005.94
2022-09-30T10:32:11.042Z,1005.88
2022-09-30T10:38:34.069Z,1005.82
2022-09-30T10:44:53.990Z,1005.78
2022-09-30T10:51:17.033Z,1005.74
2022-09-30T10:57:36.990Z,1005.76
2022-09-30T11:03:59.980Z,1005.72
2022-09-30T11:10:20.018Z,1005.67
2022-09-30T11:16:43.045Z,1005.63
2022-09-30T11:23:03.001Z,1005.59
2022-09-30T11:29:26.006Z,1005.57
2022-09-30T11:35:46.007Z,1005.59
2022-09-30T11:42:09.009Z,1005.57
2022-09-30T11:48:32.616Z,1005.57
2022-09-30T11:54:51.998Z,1005.61
2022-09-30T12:01:11.974Z,1005.69
2022-09-30T12:07:35.003Z,1005.59
2022-09-30T12:13:54.996Z,1005.55
2022-09-30T12:20:17.978Z,1005.4
2022-09-30T12:26:38.039Z,1005.36
2022-09-30T12:33:00.999Z,1005.33
2022-09-30T12:39:20.979Z,1005.27
2022-09-30T12:45:44.116Z,1005.23
2022-09-30T12:52:03.977Z,1005.13
2022-09-30T12:58:30.548Z,1005.09
2022-09-30T13:04:47.045Z,1004.99
2022-09-30T13:11:09.982Z,1004.95
2022-09-30T13:17:29.986Z,1004.88
2022-09-30T13:23:53.008Z,1004.88
2022-09-30T13:30:12.988Z,1004.86
2022-09-30T13:36:35.985Z,1004.82
2022-09-30T13:42:56.015Z,1004.76
2022-09-30T14:05:45.007Z,1004.6
2022-09-30T14:12:07.976Z,1004.56
2022-09-30T14:18:27.978Z,1004.5
2022-09-30T14:24:51.006Z,1004.45
2022-09-30T14:31:11.253Z,1004.45
2022-09-30T14:37:34.258Z,1004.41
2022-09-30T14:43:54.278Z,1004.33
2022-09-30T14:50:17.000Z,1004.25
2022-09-30T14:56:36.975Z,1004.21
2022-09-30T15:03:00.128Z,1004.17
2022-09-30T15:09:19.979Z,1004.15
2022-09-30T15:15:43.001Z,1004.11
2022-09-30T15:22:03.019Z,1004.03
2022-09-30T15:28:26.057Z,1004.03
2022-09-30T15:34:45.975Z,1003.98
2022-09-30T15:41:09.129Z,1004.03
2022-09-30T15:47:29.015Z,1004
2022-09-30T15:53:51.989Z,1004.03
2022-09-30T16:00:12.141Z,1004.05
2022-09-30T16:06:35.840Z,1004.07
2022-09-30T16:12:54.980Z,1004.13
2022-09-30T16:19:18.052Z,1004.15
2022-09-30T16:25:38.004Z,1004.19
2022-09-30T16:32:01.030Z,1004.23
2022-09-30T16:38:21.029Z,1004.27
2022-09-30T16:44:43.978Z,1004.31
2022-09-30T16:51:03.996Z,1004.39
2022-09-30T16:57:27.006Z,1004.39
2022-09-30T17:03:46.995Z,1004.43
2022-09-30T17:10:10.007Z,1004.47
2022-09-30T17:16:30.402Z,1004.5
2022-09-30T17:22:52.980Z,1004.48
2022-09-30T17:29:31.224Z,1004.48
2022-09-30T17:35:36.024Z,1004.5
2022-09-30T17:41:56.002Z,1004.47
2022-09-30T17:48:18.979Z,1004.5
2022-09-30T17:54:38.998Z,1004.56
2022-09-30T18:01:02.044Z,1004.6
2022-09-30T18:07:21.992Z,1004.56
2022-09-30T18:13:45.023Z,1004.6
2022-09-30T18:20:04.996Z,1004.64
2022-09-30T18:26:30.533Z,1004.64
2022-09-30T18:32:48.006Z,1004.58
2022-09-30T18:39:10.981Z,1004.58
2022-09-30T18:45:31.057Z,1004.66
2022-09-30T19:07:24.997Z,1004.9
2022-09-30T19:13:48.008Z,1004.95
2022-09-30T19:20:07.984Z,1005.01
2022-09-30T19:26:30.999Z,1004.99
2022-09-30T19:32:50.982Z,1004.9
2022-09-30T19:39:13.976Z,1004.9
2022-09-30T19:45:34.119Z,1004.9
2022-09-30T19:51:56.996Z,1004.86
2022-09-30T19:58:17.023Z,1004.82
2022-09-30T20:04:40.011Z,1004.82
2022-09-30T20:11:00.026Z,1004.88
2022-09-30T20:17:23.012Z,1004.94
2022-09-30T20:23:43.042Z,1004.97
2022-09-30T20:30:05.979Z,1004.97
2022-09-30T20:36:25.998Z,1004.95
2022-09-30T20:42:49.029Z,1004.95
2022-09-30T20:49:08.983Z,1004.84
2022-09-30T20:55:32.049Z,1004.72
2022-09-30T21:01:52.076Z,1004.64
2022-09-30T21:08:15.008Z,1004.52
2022-09-30T21:14:34.987Z,1004.43
2022-09-30T21:20:58.025Z,1004.35
2022-09-30T21:27:18.031Z,1004.25
2022-09-30T21:33:41.003Z,1004.15
2022-09-30T21:40:01.007Z,1004.05
2022-09-30T21:46:23.989Z,1004.03
2022-09-30T21:52:43.983Z,1004.07
2022-09-30T21:59:07.123Z,1004.03
2022-09-30T22:22:05.049Z,1003.98
2022-09-30T22:28:25.005Z,1003.96
2022-09-30T22:34:48.016Z,1003.92
2022-09-30T22:41:07.990Z,1003.9
2022-09-30T22:47:31.024Z,1003.82
2022-09-30T22:53:50.988Z,1003.72
2022-09-30T23:00:14.042Z,1003.72
2022-09-30T23:06:33.989Z,1003.72
2022-09-30T23:12:57.047Z,1003.68
2022-09-30T23:19:16.995Z,1003.6
2022-09-30T23:25:39.981Z,1003.56
2022-09-30T23:32:00.051Z,1003.53
2022-09-30T23:38:23.006Z,1003.47
2022-09-30T23:44:42.981Z,1003.39
2022-09-30T23:51:05.994Z,1003.29
2022-09-30T23:57:26.009Z,1003.19
